首页
METAR-TAF:

METAR-TAF

机场 :

弗罗西诺内, 意大利

纬度: 41-38N, 经度: 013-18E, 海拔: 180米

当前天气观测

该预报发布于1小时和5分钟前的07:55 UTC
风速2节,风向西转西南
温度 15°C
湿度 88%
气压 1020 hPa
能見度: 8000
少量云层高于4000英尺

METAR: LIRH 170755Z 24002KT 8000 FEW040 15/13 Q1020 RMK SCT SCT200 MON LIB NC VIS MIN 8000 WIND THR16 /////KT BLU

时间: 11:00 (09:00 UTC)

预报

该预报发布于1小时和0分钟前的08:00 UTC
预报有效从17日的 09点(UTC)到 17日的 18点(UTC)
风速3节,风向多变
能见度10公里或以上
少量云层高于4000英尺
短暂存在
从 17日的 12点(UTC)到 17日的 16点(UTC)
风速8节,风向西南

TAF: LIRH 170800Z 1709/1718 VRB03KT 9999 FEW040 TEMPO 1712/1716 23008KT

超过4000个机场的气象观测和天气预报(METAR&TAF报告)。

可查询的气象台以黄色和红色小点在地图上表示。

将鼠标移到小点上方,可查看气象台名称。

然后点击查看天气观测和预报。

如需切换地图:点击带黑十字的绿色按钮放大地图;点击带横线的绿色按钮缩小地图;或者点击绿色箭头查看邻近地区的地图。


METAR-TAF: